createdAt,value
2022-08-22T00:00:28.555Z,3.10
2022-08-22T00:02:47.882Z,4.22
2022-08-22T00:05:53.906Z,3.67
2022-08-22T00:08:24.238Z,2.88
2022-08-22T00:10:55.495Z,3.10
2022-08-22T00:13:26.540Z,3.60
2022-08-22T00:15:58.715Z,3.83
2022-08-22T00:18:31.653Z,3.08
2022-08-22T00:21:04.364Z,2.80
2022-08-22T00:23:36.959Z,3.40
2022-08-22T00:26:07.367Z,3.10
2022-08-22T00:28:38.110Z,3.20
2022-08-22T00:31:15.563Z,3.45
2022-08-22T00:33:46.332Z,3.45
2022-08-22T00:36:16.305Z,3.50
2022-08-22T00:38:46.949Z,3.73
2022-08-22T00:41:23.257Z,3.08
2022-08-22T00:44:12.253Z,3.50
2022-08-22T00:47:00.802Z,3.42
2022-08-22T00:49:44.893Z,3.35
2022-08-22T00:52:22.915Z,3.30
2022-08-22T00:55:00.189Z,3.17
2022-08-22T00:57:32.402Z,3.35
2022-08-22T01:00:07.716Z,3.05
2022-08-22T01:02:47.115Z,3.15
2022-08-22T01:05:28.419Z,3.30
2022-08-22T01:08:02.508Z,3.35
2022-08-22T01:10:36.481Z,3.30
2022-08-22T01:13:15.069Z,3.85
2022-08-22T01:15:43.523Z,3.42
2022-08-22T01:18:32.005Z,2.93
2022-08-22T01:21:20.659Z,3.10
2022-08-22T01:24:09.481Z,3.40
2022-08-22T01:26:55.635Z,3.47
2022-08-22T01:29:45.705Z,3.38
2022-08-22T01:32:34.420Z,3.30
2022-08-22T01:35:11.201Z,3.40
2022-08-22T01:38:05.473Z,3.20
2022-08-22T01:40:55.652Z,3.65
2022-08-22T01:43:59.343Z,4.05
2022-08-22T01:46:26.507Z,3.80
2022-08-22T01:48:56.660Z,4.30
2022-08-22T01:51:28.095Z,4.57
2022-08-22T01:53:58.964Z,4.57
2022-08-22T01:56:27.522Z,4.35
2022-08-22T01:58:56.571Z,4.40
2022-08-22T02:01:28.996Z,4.55
2022-08-22T02:04:01.262Z,4.30
2022-08-22T02:06:36.848Z,4.78
2022-08-22T02:09:06.037Z,4.35
2022-08-22T02:11:36.677Z,4.60
2022-08-22T02:14:08.392Z,4.72
2022-08-22T02:16:37.339Z,4.50
2022-08-22T02:19:08.443Z,3.97
2022-08-22T02:21:43.500Z,4.65
2022-08-22T02:24:24.903Z,4.70
2022-08-22T02:26:57.584Z,4.20
2022-08-22T02:29:33.111Z,4.80
2022-08-22T02:32:04.068Z,4.70
2022-08-22T02:34:37.140Z,4.50
2022-08-22T02:37:09.278Z,4.20
2022-08-22T02:39:39.520Z,4.22
2022-08-22T02:42:18.597Z,4.22
2022-08-22T02:44:53.219Z,4.50
2022-08-22T02:47:26.553Z,4.22
2022-08-22T02:49:58.470Z,4.33
2022-08-22T02:52:29.548Z,4.50
2022-08-22T02:54:59.362Z,4.38
2022-08-22T02:57:31.412Z,4.10
2022-08-22T03:00:30.684Z,4.65
2022-08-22T03:03:02.228Z,4.20
2022-08-22T03:05:30.705Z,3.78
2022-08-22T03:08:05.640Z,3.88
2022-08-22T03:10:37.994Z,4.20
2022-08-22T03:13:09.029Z,4.28
2022-08-22T03:15:39.367Z,4.00
2022-08-22T03:18:19.704Z,3.88
2022-08-22T03:20:50.502Z,3.72
2022-08-22T03:23:25.331Z,4.10
2022-08-22T03:25:58.547Z,4.20
2022-08-22T03:28:29.409Z,3.90
2022-08-22T03:30:58.551Z,3.75
2022-08-22T03:33:27.569Z,4.03
2022-08-22T03:36:05.033Z,3.90
2022-08-22T03:38:44.553Z,3.88
2022-08-22T03:41:21.256Z,4.47
2022-08-22T03:44:07.448Z,3.83
2022-08-22T03:46:52.775Z,4.50
2022-08-22T03:49:35.244Z,3.92
2022-08-22T03:52:14.539Z,4.10
2022-08-22T03:55:05.899Z,4.20
2022-08-22T03:57:50.985Z,4.63
2022-08-22T04:00:26.415Z,3.90
2022-08-22T04:03:21.216Z,4.10
2022-08-22T04:06:04.743Z,4.05
2022-08-22T04:08:54.012Z,4.30
2022-08-22T04:11:39.216Z,4.28
2022-08-22T04:14:17.647Z,3.90
2022-08-22T04:17:05.823Z,4.35
2022-08-22T04:19:50.255Z,3.95
2022-08-22T04:22:22.704Z,3.90
2022-08-22T04:24:52.732Z,4.03
2022-08-22T04:27:23.163Z,4.15
2022-08-22T04:29:53.343Z,4.53
2022-08-22T04:32:25.922Z,4.63
2022-08-22T04:34:58.357Z,4.47
2022-08-22T04:37:31.228Z,4.70
2022-08-22T04:40:00.988Z,4.32
2022-08-22T04:42:33.097Z,4.35
2022-08-22T04:45:03.719Z,4.40
2022-08-22T04:47:33.808Z,4.33
2022-08-22T04:50:05.981Z,4.10
2022-08-22T04:52:40.186Z,3.88
2022-08-22T04:55:11.990Z,4.35
2022-08-22T04:57:46.091Z,4.00
2022-08-22T05:00:14.577Z,4.40
2022-08-22T05:02:45.367Z,4.65
2022-08-22T05:05:19.506Z,4.40
2022-08-22T05:07:49.951Z,4.22
2022-08-22T05:10:21.974Z,4.50
2022-08-22T05:12:52.099Z,4.07
2022-08-22T05:15:23.085Z,4.07
2022-08-22T05:17:52.276Z,4.10
2022-08-22T05:20:23.131Z,4.13
2022-08-22T05:22:52.783Z,4.32
2022-08-22T05:25:24.900Z,4.30
2022-08-22T05:27:56.362Z,4.70
2022-08-22T05:30:25.543Z,4.53
2022-08-22T05:32:56.537Z,4.45
2022-08-22T05:35:30.403Z,5.07
2022-08-22T05:37:58.013Z,5.27
2022-08-22T05:40:27.169Z,4.43
2022-08-22T05:42:55.435Z,4.63
2022-08-22T05:45:23.645Z,4.80
2022-08-22T05:47:53.150Z,4.93
2022-08-22T05:50:23.652Z,4.60
2022-08-22T05:53:06.074Z,4.60
2022-08-22T05:55:37.610Z,4.65
2022-08-22T05:58:16.797Z,5.13
2022-08-22T06:00:46.885Z,4.65
2022-08-22T06:03:16.668Z,4.60
2022-08-22T06:05:47.766Z,4.80
2022-08-22T06:08:20.862Z,5.15
2022-08-22T06:10:50.814Z,4.70
2022-08-22T06:13:24.422Z,4.47
2022-08-22T06:15:55.938Z,4.90
2022-08-22T06:18:26.061Z,4.57
2022-08-22T06:20:54.381Z,4.70
2022-08-22T06:23:26.049Z,5.03
2022-08-22T06:25:54.363Z,4.47
2022-08-22T06:28:23.513Z,4.40
2022-08-22T06:30:51.982Z,4.63
2022-08-22T06:33:23.838Z,4.40
2022-08-22T06:36:11.004Z,4.50
2022-08-22T06:38:53.072Z,4.30
2022-08-22T06:41:22.026Z,4.53
2022-08-22T06:43:52.268Z,4.50
2022-08-22T06:46:20.444Z,5.00
2022-08-22T06:48:48.840Z,4.97
2022-08-22T06:51:17.865Z,4.80
2022-08-22T06:53:48.482Z,4.70
2022-08-22T06:56:20.526Z,4.72
2022-08-22T06:58:49.638Z,4.70
2022-08-22T07:01:19.444Z,4.63
2022-08-22T07:03:47.840Z,4.78
2022-08-22T07:06:17.331Z,4.80
2022-08-22T07:08:46.190Z,4.50
2022-08-22T07:11:16.650Z,4.95
2022-08-22T07:13:45.368Z,4.35
2022-08-22T07:16:14.992Z,4.88
2022-08-22T07:18:47.426Z,4.93
2022-08-22T07:21:24.866Z,4.70
2022-08-22T07:23:54.218Z,4.68
2022-08-22T07:26:27.055Z,4.80
2022-08-22T07:28:58.460Z,4.78
2022-08-22T07:31:31.803Z,4.87
2022-08-22T07:34:04.259Z,4.70
2022-08-22T07:36:39.511Z,5.00
2022-08-22T07:39:15.416Z,5.07
2022-08-22T07:41:53.957Z,5.05
2022-08-22T07:44:23.786Z,5.43
2022-08-22T07:46:56.907Z,4.65
2022-08-22T07:49:26.368Z,4.85
2022-08-22T07:51:55.362Z,5.97
2022-08-22T07:54:27.076Z,5.30
2022-08-22T07:56:57.558Z,5.10
2022-08-22T07:59:25.317Z,4.63
2022-08-22T08:01:55.039Z,5.70
2022-08-22T08:04:24.772Z,5.18
2022-08-22T08:06:53.597Z,5.28
2022-08-22T08:09:21.315Z,5.50
2022-08-22T08:11:52.500Z,5.30
2022-08-22T08:14:20.976Z,5.25
2022-08-22T08:16:53.926Z,4.50
2022-08-22T08:19:21.936Z,4.47
2022-08-22T08:21:53.485Z,4.67
2022-08-22T08:24:23.671Z,4.50
2022-08-22T08:27:11.994Z,4.28
2022-08-22T08:29:41.142Z,4.60
2022-08-22T08:32:11.284Z,3.95
2022-08-22T08:34:39.868Z,4.30
2022-08-22T08:37:12.993Z,4.55
2022-08-22T08:39:42.898Z,3.70
2022-08-22T08:42:16.213Z,4.70
2022-08-22T08:44:58.536Z,4.25
2022-08-22T08:47:32.881Z,4.00
2022-08-22T08:50:14.950Z,4.00
2022-08-22T08:52:58.402Z,3.80
2022-08-22T08:55:31.132Z,3.72
2022-08-22T08:58:07.281Z,3.20
2022-08-22T09:00:51.057Z,2.93
2022-08-22T09:03:30.900Z,3.10
2022-08-22T09:06:16.812Z,2.95
2022-08-22T09:08:55.788Z,2.83
2022-08-22T09:11:48.042Z,3.03
2022-08-22T09:14:26.935Z,2.70
2022-08-22T09:17:04.996Z,2.72
2022-08-22T09:19:52.105Z,2.67
2022-08-22T09:22:50.110Z,2.95
2022-08-22T09:25:24.997Z,2.85
2022-08-22T09:27:56.861Z,2.92
2022-08-22T09:30:28.839Z,2.70
2022-08-22T09:32:59.668Z,2.67
2022-08-22T09:35:29.249Z,2.50
2022-08-22T09:38:05.066Z,2.85
2022-08-22T09:40:35.572Z,2.90
2022-08-22T09:43:06.385Z,2.50
2022-08-22T09:45:38.569Z,2.67
2022-08-22T09:48:10.339Z,2.53
2022-08-22T09:50:43.067Z,2.30
2022-08-22T09:53:13.031Z,2.60
2022-08-22T09:55:44.997Z,2.90
2022-08-22T09:58:20.222Z,2.80
2022-08-22T10:00:55.277Z,2.47
2022-08-22T10:03:29.086Z,2.42
2022-08-22T10:06:00.404Z,2.85
2022-08-22T10:08:34.092Z,2.50
2022-08-22T10:11:07.062Z,2.60
2022-08-22T10:13:38.422Z,2.70
2022-08-22T10:16:16.655Z,2.42
2022-08-22T10:18:53.246Z,2.53
2022-08-22T10:21:26.819Z,2.30
2022-08-22T10:23:55.831Z,2.40
2022-08-22T10:26:30.188Z,2.17
2022-08-22T10:29:01.763Z,2.50
2022-08-22T10:31:35.655Z,2.30
2022-08-22T10:34:16.314Z,2.53
2022-08-22T10:36:48.680Z,2.83
2022-08-22T10:39:19.789Z,2.58
2022-08-22T10:42:01.737Z,2.30
2022-08-22T10:44:35.220Z,2.45
2022-08-22T10:47:07.502Z,2.20
2022-08-22T10:49:36.820Z,2.50
2022-08-22T10:52:15.684Z,2.40
2022-08-22T10:54:45.886Z,2.38
2022-08-22T10:57:20.735Z,2.60
2022-08-22T10:59:54.211Z,2.63
2022-08-22T11:02:42.349Z,2.63
2022-08-22T11:05:35.591Z,2.83
2022-08-22T11:08:17.584Z,3.00
2022-08-22T11:10:54.063Z,2.72
2022-08-22T11:13:28.814Z,2.47
2022-08-22T11:15:59.869Z,2.50
2022-08-22T11:18:33.780Z,2.70
2022-08-22T11:21:07.343Z,3.00
2022-08-22T11:23:43.174Z,2.58
2022-08-22T11:26:14.383Z,2.80
2022-08-22T11:29:12.313Z,2.65
2022-08-22T11:31:51.704Z,2.40
2022-08-22T11:34:26.888Z,2.20
2022-08-22T11:36:57.481Z,2.10
2022-08-22T11:39:27.529Z,2.47
2022-08-22T11:41:58.669Z,2.40
2022-08-22T11:44:29.694Z,2.55
2022-08-22T11:46:58.601Z,2.75
2022-08-22T11:49:41.508Z,2.80
2022-08-22T11:52:14.311Z,2.70
2022-08-22T11:54:56.387Z,2.72
2022-08-22T11:57:29.868Z,2.75
2022-08-22T12:00:04.445Z,2.75
2022-08-22T12:02:36.045Z,2.58
2022-08-22T12:05:07.541Z,2.80
2022-08-22T12:07:38.578Z,2.72
2022-08-22T12:10:13.822Z,2.60
2022-08-22T12:12:55.298Z,2.50
2022-08-22T12:15:24.523Z,2.42
2022-08-22T12:18:10.508Z,2.77
2022-08-22T12:20:52.287Z,2.83
2022-08-22T12:23:43.708Z,2.65
2022-08-22T12:26:22.009Z,2.85
2022-08-22T12:28:57.393Z,2.65
2022-08-22T12:31:32.184Z,3.10
2022-08-22T12:34:04.801Z,2.90
2022-08-22T12:36:55.125Z,2.90
2022-08-22T12:39:31.108Z,2.90
2022-08-22T12:42:11.621Z,2.65
2022-08-22T12:44:46.082Z,2.77
2022-08-22T12:47:24.308Z,3.40
2022-08-22T12:50:02.929Z,3.20
2022-08-22T12:52:39.794Z,3.15
2022-08-22T12:55:27.704Z,3.53
2022-08-22T12:58:03.228Z,3.67
2022-08-22T13:00:32.703Z,2.75
2022-08-22T13:03:02.206Z,3.40
2022-08-22T13:05:30.597Z,3.38
2022-08-22T13:08:04.679Z,3.00
2022-08-22T13:10:38.700Z,2.93
2022-08-22T13:13:12.232Z,2.85
2022-08-22T13:15:42.539Z,3.00
2022-08-22T13:18:29.447Z,3.03
2022-08-22T13:20:59.196Z,2.80
2022-08-22T13:23:29.170Z,3.00
2022-08-22T13:26:00.715Z,2.90
2022-08-22T13:28:31.177Z,2.80
2022-08-22T13:30:59.891Z,2.80
2022-08-22T13:33:29.799Z,2.60
2022-08-22T13:36:01.412Z,2.67
2022-08-22T13:38:30.314Z,2.70
2022-08-22T13:40:58.853Z,3.00
2022-08-22T13:43:29.669Z,3.03
2022-08-22T13:46:01.873Z,2.70
2022-08-22T13:48:46.729Z,3.07
2022-08-22T13:51:17.210Z,2.90
2022-08-22T13:54:00.358Z,2.80
2022-08-22T13:56:31.277Z,3.10
2022-08-22T13:59:00.199Z,3.42
2022-08-22T14:01:32.546Z,3.30
2022-08-22T14:04:01.626Z,3.88
2022-08-22T14:06:38.345Z,3.55
2022-08-22T14:09:31.314Z,3.17
2022-08-22T14:12:08.137Z,3.55
2022-08-22T14:14:41.019Z,3.20
2022-08-22T14:17:14.466Z,3.53
2022-08-22T14:19:58.907Z,3.20
2022-08-22T14:22:32.624Z,3.05
2022-08-22T14:25:04.980Z,3.47
2022-08-22T14:27:36.400Z,3.40
2022-08-22T14:30:06.621Z,3.65
2022-08-22T14:32:43.280Z,3.42
2022-08-22T14:35:21.812Z,2.83
2022-08-22T14:37:54.340Z,3.22
2022-08-22T14:40:24.154Z,2.90
2022-08-22T14:42:53.835Z,3.13
2022-08-22T14:45:22.868Z,3.00
2022-08-22T14:48:29.299Z,3.20
2022-08-22T14:50:44.203Z,3.10
2022-08-22T14:53:12.831Z,3.00
2022-08-22T14:55:42.052Z,3.00
2022-08-22T14:58:15.407Z,2.72
2022-08-22T15:00:44.881Z,3.25
2022-08-22T15:03:27.235Z,2.67
2022-08-22T15:05:56.186Z,2.70
2022-08-22T15:08:27.479Z,2.72
2022-08-22T15:11:13.083Z,2.60
2022-08-22T15:13:43.289Z,3.25
2022-08-22T15:16:14.816Z,3.08
2022-08-22T15:18:52.017Z,2.67
2022-08-22T15:21:24.450Z,3.03
2022-08-22T15:23:54.531Z,2.80
2022-08-22T15:26:27.142Z,2.65
2022-08-22T15:29:04.350Z,3.13
2022-08-22T15:31:32.307Z,2.80
2022-08-22T15:34:09.114Z,3.28
2022-08-22T15:36:36.805Z,2.70
2022-08-22T15:39:19.582Z,2.40
2022-08-22T15:41:47.758Z,2.60
2022-08-22T15:44:32.273Z,2.80
2022-08-22T15:47:03.829Z,2.80
2022-08-22T15:49:34.689Z,3.10
2022-08-22T15:52:19.485Z,2.80
2022-08-22T15:55:05.720Z,2.90
2022-08-22T15:57:35.313Z,2.80
2022-08-22T16:00:05.020Z,2.90
2022-08-22T16:02:41.470Z,3.25
2022-08-22T16:05:24.019Z,2.75
2022-08-22T16:07:59.415Z,3.03
2022-08-22T16:10:31.374Z,2.60
2022-08-22T16:13:16.569Z,2.75
2022-08-22T16:15:58.638Z,3.00
2022-08-22T16:18:50.108Z,3.10
2022-08-22T16:21:38.952Z,3.10
2022-08-22T16:24:24.937Z,3.13
2022-08-22T16:26:54.424Z,3.00
2022-08-22T16:29:29.709Z,3.10
2022-08-22T16:31:59.464Z,3.03
2022-08-22T16:34:39.120Z,4.18
2022-08-22T16:37:24.287Z,3.10
2022-08-22T16:39:53.390Z,3.53
2022-08-22T16:42:24.742Z,3.63
2022-08-22T16:44:56.194Z,5.13
2022-08-22T16:47:25.600Z,4.68
2022-08-22T16:49:56.522Z,3.60
2022-08-22T16:52:40.523Z,3.58
2022-08-22T16:55:27.974Z,2.90
2022-08-22T16:58:06.315Z,2.80
2022-08-22T17:00:38.690Z,3.38
2022-08-22T17:03:10.613Z,2.80
2022-08-22T17:05:44.828Z,2.88
2022-08-22T17:08:31.079Z,3.00
2022-08-22T17:11:04.000Z,3.13
2022-08-22T17:13:42.652Z,3.40
2022-08-22T17:16:22.724Z,3.10
2022-08-22T17:18:56.337Z,2.78
2022-08-22T17:21:26.413Z,3.00
2022-08-22T17:23:58.606Z,2.90
2022-08-22T17:26:29.865Z,3.15
2022-08-22T17:29:04.315Z,2.80
2022-08-22T17:31:36.023Z,2.88
2022-08-22T17:34:09.066Z,2.92
2022-08-22T17:36:47.183Z,3.08
2022-08-22T17:39:21.390Z,2.80
2022-08-22T17:41:51.139Z,2.57
2022-08-22T17:44:23.290Z,2.80
2022-08-22T17:46:54.202Z,2.60
2022-08-22T17:49:33.826Z,2.60
2022-08-22T17:52:08.059Z,2.58
2022-08-22T17:54:40.324Z,2.57
2022-08-22T17:57:11.308Z,2.90
2022-08-22T17:59:46.757Z,2.60
2022-08-22T18:02:16.692Z,2.50
2022-08-22T18:04:47.576Z,2.40
2022-08-22T18:07:38.275Z,2.60
2022-08-22T18:10:09.006Z,2.40
2022-08-22T18:12:40.956Z,2.47
2022-08-22T18:15:12.283Z,2.50
2022-08-22T18:17:42.508Z,2.55
2022-08-22T18:20:13.756Z,2.10
2022-08-22T18:22:44.683Z,2.40
2022-08-22T18:25:27.442Z,2.50
2022-08-22T18:27:58.551Z,2.47
2022-08-22T18:30:28.815Z,2.42
2022-08-22T18:32:59.463Z,3.07
2022-08-22T18:35:29.910Z,3.15
2022-08-22T18:38:01.508Z,3.25
2022-08-22T18:40:34.654Z,3.10
2022-08-22T18:43:08.744Z,3.53
2022-08-22T18:46:02.808Z,3.20
2022-08-22T18:48:37.259Z,3.40
2022-08-22T18:51:24.830Z,3.30
2022-08-22T18:53:54.058Z,3.70
2022-08-22T18:56:38.879Z,3.45
2022-08-22T18:59:13.763Z,3.13
2022-08-22T19:01:48.443Z,3.75
2022-08-22T19:04:31.202Z,3.83
2022-08-22T19:07:11.033Z,3.45
2022-08-22T19:09:46.686Z,4.13
2022-08-22T19:12:21.675Z,4.00
2022-08-22T19:14:55.552Z,3.78
2022-08-22T19:17:32.164Z,3.80
2022-08-22T19:20:19.642Z,3.75
2022-08-22T19:22:51.143Z,3.80
2022-08-22T19:25:20.274Z,3.97
2022-08-22T19:28:08.614Z,4.10
2022-08-22T19:30:41.499Z,4.05
2022-08-22T19:33:10.147Z,4.00
2022-08-22T19:35:40.266Z,3.90
2022-08-22T19:38:09.083Z,4.00
2022-08-22T19:40:53.212Z,3.53
2022-08-22T19:43:27.258Z,3.85
2022-08-22T19:45:57.008Z,3.97
2022-08-22T19:48:27.175Z,4.32
2022-08-22T19:51:11.732Z,3.92
2022-08-22T19:53:46.525Z,3.83
2022-08-22T19:56:21.322Z,4.32
2022-08-22T19:58:55.655Z,4.20
2022-08-22T20:01:32.728Z,4.00
2022-08-22T20:04:04.451Z,4.25
2022-08-22T20:06:44.033Z,3.83
2022-08-22T20:09:33.515Z,4.20
2022-08-22T20:12:05.456Z,4.25
2022-08-22T20:14:33.989Z,4.35
2022-08-22T20:17:05.047Z,3.90
2022-08-22T20:22:42.475Z,4.13
2022-08-22T20:25:16.964Z,4.20
2022-08-22T20:28:01.814Z,4.25
2022-08-22T20:30:30.616Z,4.03
2022-08-22T20:33:01.983Z,4.47
2022-08-22T20:35:35.724Z,4.68
2022-08-22T20:38:07.037Z,3.90
2022-08-22T20:40:56.180Z,4.30
2022-08-22T20:43:28.389Z,4.18
2022-08-22T20:46:00.454Z,4.23
2022-08-22T20:48:33.924Z,4.18
2022-08-22T20:51:03.656Z,4.20
2022-08-22T20:53:31.127Z,4.10
2022-08-22T20:55:59.599Z,4.30
2022-08-22T20:58:28.480Z,4.20
2022-08-22T21:01:00.032Z,4.25
2022-08-22T21:03:33.645Z,4.57
2022-08-22T21:06:11.807Z,4.28
2022-08-22T21:08:39.298Z,4.28
2022-08-22T21:11:24.720Z,3.90
2022-08-22T21:13:52.712Z,4.20
2022-08-22T21:16:22.325Z,4.38
2022-08-22T21:18:51.155Z,4.30
2022-08-22T21:21:20.932Z,4.43
2022-08-22T21:23:49.355Z,4.10
2022-08-22T21:26:22.179Z,4.45
2022-08-22T21:28:55.727Z,4.80
2022-08-22T21:31:24.594Z,4.13
2022-08-22T21:33:53.097Z,4.28
2022-08-22T21:36:22.884Z,4.53
2022-08-22T21:38:51.919Z,4.93
2022-08-22T21:41:26.884Z,5.00
2022-08-22T21:43:54.348Z,4.47
2022-08-22T21:46:26.207Z,4.85
2022-08-22T21:49:01.762Z,4.67
2022-08-22T21:51:32.806Z,4.97
2022-08-22T21:54:19.240Z,5.10
2022-08-22T21:56:46.708Z,4.72
2022-08-22T21:59:21.158Z,4.72
2022-08-22T22:01:52.771Z,5.07
2022-08-22T22:04:22.995Z,6.03
2022-08-22T22:06:51.738Z,5.43
2022-08-22T22:09:19.199Z,5.50
2022-08-22T22:11:46.622Z,5.53
2022-08-22T22:14:14.051Z,5.27
2022-08-22T22:16:41.467Z,5.35
2022-08-22T22:19:09.885Z,5.70
2022-08-22T22:21:38.212Z,6.35
2022-08-22T22:24:07.185Z,5.85
2022-08-22T22:26:34.732Z,5.37
2022-08-22T22:29:03.478Z,5.85
2022-08-22T22:31:31.599Z,5.90
2022-08-22T22:34:01.282Z,5.90
2022-08-22T22:36:28.898Z,6.10
2022-08-22T22:38:56.456Z,6.20
2022-08-22T22:41:25.785Z,6.45
2022-08-22T22:43:53.527Z,6.15
2022-08-22T22:46:20.990Z,6.72
2022-08-22T22:48:48.966Z,6.15
2022-08-22T22:51:16.696Z,6.13
2022-08-22T22:53:44.815Z,6.15
2022-08-22T22:56:14.161Z,6.15
2022-08-22T22:58:44.875Z,6.50
2022-08-22T23:01:15.118Z,6.72
2022-08-22T23:03:42.573Z,6.30
2022-08-22T23:06:11.981Z,6.53
2022-08-22T23:08:39.388Z,6.45
2022-08-22T23:11:09.772Z,6.35
2022-08-22T23:13:39.700Z,6.57
2022-08-22T23:16:10.888Z,5.77
2022-08-22T23:18:38.411Z,6.15
2022-08-22T23:21:12.447Z,6.35
2022-08-22T23:23:39.927Z,6.00
2022-08-22T23:26:07.345Z,6.47
2022-08-22T23:28:34.810Z,6.70
2022-08-22T23:31:11.683Z,6.47
2022-08-22T23:33:39.134Z,6.75
2022-08-22T23:36:13.565Z,5.65
2022-08-22T23:38:41.004Z,6.60
2022-08-22T23:41:09.991Z,7.37
2022-08-22T23:43:37.979Z,7.10
2022-08-22T23:46:05.395Z,6.50
2022-08-22T23:48:34.122Z,6.50
2022-08-22T23:51:01.540Z,6.30
2022-08-22T23:53:29.438Z,6.30
2022-08-22T23:55:56.857Z,6.15
2022-08-22T23:58:24.279Z,6.22
